Time;durP1;ratioP1;P1;durP2;ratioP2;P2;SDS_P1;SDS_P2;PMS_P1;PMS_P2;Temp;Humidity;BMP_temperature;BMP_pressure;BME280_temperature;BME280_humidity;BME280_pressure;Samples;Min_cycle;Max_cycle;Signal;HPM_P1;HPM_P2
2022/06/22 00:01:17;;;;;;;4.45;1.63;;;17.80;88.70;;;;;;4953900;28;20039;-67
2022/06/22 00:03:51;;;;;;;6.88;1.83;;;17.70;89.30;;;;;;4945061;29;20047;-67
2022/06/22 00:06:43;;;;;;;5.80;1.90;;;17.60;89.40;;;;;;4953283;28;20142;-67
2022/06/22 00:09:23;;;;;;;5.65;1.90;;;17.60;89.50;;;;;;4950901;28;20047;-67
2022/06/22 00:11:50;;;;;;;6.15;1.90;;;17.60;89.60;;;;;;4953203;28;20102;-66
2022/06/22 00:14:24;;;;;;;5.05;1.73;;;17.60;89.50;;;;;;4953099;28;20028;-67
2022/06/22 00:16:53;;;;;;;8.38;2.53;;;17.60;89.60;;;;;;4951635;29;20039;-67
2022/06/22 00:19:31;;;;;;;5.07;1.75;;;17.50;89.60;;;;;;4952823;28;20125;-67
2022/06/22 00:21:58;;;;;;;7.57;1.92;;;17.50;89.80;;;;;;4952976;28;20126;-67
2022/06/22 00:24:23;;;;;;;4.25;1.80;;;17.40;90.00;;;;;;4952508;28;20035;-66
2022/06/22 00:27:15;;;;;;;5.40;1.70;;;17.40;90.20;;;;;;4953026;28;20448;-67
2022/06/22 00:29:41;;;;;;;5.68;1.80;;;17.40;90.30;;;;;;4935493;29;20031;-66
2022/06/22 00:32:36;;;;;;;5.63;1.70;;;17.30;90.30;;;;;;4953082;28;20038;-66
2022/06/22 00:35:39;;;;;;;7.85;2.03;;;17.30;90.50;;;;;;4936626;28;20150;-67
2022/06/22 00:38:06;;;;;;;5.13;1.80;;;17.20;90.70;;;;;;4952392;28;20055;-66
2022/06/22 00:40:35;;;;;;;6.00;1.90;;;17.20;90.90;;;;;;4952843;28;20732;-67
2022/06/22 00:43:04;;;;;;;7.47;2.17;;;17.20;91.00;;;;;;4953195;28;20428;-67
2022/06/22 00:45:34;;;;;;;6.03;2.00;;;17.20;91.00;;;;;;4951940;29;20035;-67
2022/06/22 00:48:22;;;;;;;6.45;1.60;;;17.20;91.00;;;;;;4952682;28;20031;-67
2022/06/22 00:50:59;;;;;;;5.37;1.93;;;17.20;90.80;;;;;;4953096;28;20094;-67
2022/06/22 00:53:51;;;;;;;6.53;2.03;;;17.20;90.70;;;;;;4952583;28;20042;-67
2022/06/22 00:56:16;;;;;;;5.97;1.80;;;17.20;90.60;;;;;;4953179;28;20514;-67
2022/06/22 00:59:05;;;;;;;5.60;1.88;;;17.20;90.40;;;;;;4952753;28;20035;-67
2022/06/22 01:01:34;;;;;;;;;;;17.20;90.40;;;;;;4953388;28;20051;-67
2022/06/22 01:04:06;;;;;;;7.20;1.90;;;17.20;90.40;;;;;;4952577;28;19925;-67
2022/06/22 01:06:48;;;;;;;5.32;1.50;;;17.20;90.30;;;;;;4952394;28;20032;-67
2022/06/22 01:09:36;;;;;;;4.60;1.90;;;17.20;90.20;;;;;;4950406;28;20032;-66
2022/06/22 01:12:16;;;;;;;5.37;1.67;;;17.30;90.00;;;;;;4952560;29;20063;-67
2022/06/22 01:15:05;;;;;;;5.63;1.48;;;17.30;89.80;;;;;;4952487;28;20090;-67
2022/06/22 01:17:54;;;;;;;5.43;1.60;;;17.30;89.80;;;;;;4952012;28;20047;-67
2022/06/22 01:20:29;;;;;;;;;;;17.30;89.80;;;;;;4952542;28;20037;-66
2022/06/22 01:23:34;;;;;;;5.65;1.90;;;17.20;90.00;;;;;;4950434;29;19911;-67
2022/06/22 01:26:47;;;;;;;7.18;1.90;;;17.30;90.10;;;;;;4952233;28;20050;-66
2022/06/22 01:29:25;;;;;;;6.70;2.00;;;17.30;90.00;;;;;;4952202;28;20392;-66
2022/06/22 01:32:01;;;;;;;5.28;1.80;;;17.30;90.00;;;;;;4952217;29;20432;-67
2022/06/22 01:34:35;;;;;;;8.85;2.25;;;17.40;90.20;;;;;;4950743;29;20028;-67
2022/06/22 01:37:05;;;;;;;6.40;1.90;;;17.40;90.20;;;;;;4951863;28;20055;-67
2022/06/22 01:39:31;;;;;;;4.85;1.95;;;17.40;90.20;;;;;;4951218;28;20054;-66
2022/06/22 01:42:02;;;;;;;7.20;1.90;;;17.40;90.20;;;;;;4951915;28;20469;-66
2022/06/22 01:45:01;;;;;;;3.53;1.90;;;17.40;90.30;;;;;;4951983;28;20027;-67
2022/06/22 01:47:41;;;;;;;5.93;1.88;;;17.40;90.40;;;;;;4934797;28;20069;-67
2022/06/22 01:50:21;;;;;;;4.85;1.98;;;17.40;90.50;;;;;;4951748;28;20106;-67
2022/06/22 01:52:51;;;;;;;5.82;2.25;;;17.40;90.50;;;;;;4951386;28;20051;-67
2022/06/22 01:55:31;;;;;;;6.53;2.25;;;17.50;90.60;;;;;;4951891;28;20051;-66
2022/06/22 01:58:15;;;;;;;5.85;2.38;;;17.40;90.40;;;;;;4951434;28;20038;-67
2022/06/22 02:00:57;;;;;;;6.90;2.38;;;17.50;90.50;;;;;;4951495;28;20481;-67
2022/06/22 02:03:33;;;;;;;5.95;2.20;;;17.40;90.50;;;;;;4951786;28;20636;-67
2022/06/22 02:07:44;;;;;;;5.00;1.80;;;17.30;90.70;;;;;;4951589;28;20050;-67
2022/06/22 02:08:52;;;;;;;6.18;2.30;;;17.30;90.70;;;;;;4950797;28;20118;-67
2022/06/22 02:11:26;;;;;;;5.72;2.00;;;17.20;90.90;;;;;;4951556;28;20035;-67
2022/06/22 02:13:52;;;;;;;7.15;2.10;;;17.20;90.90;;;;;;4951445;28;20035;-67
2022/06/22 02:16:22;;;;;;;6.78;2.00;;;17.20;91.00;;;;;;4951551;28;20042;-67
2022/06/22 02:18:56;;;;;;;4.78;2.10;;;17.10;91.00;;;;;;4955273;28;20061;-67
2022/06/22 02:21:32;;;;;;;5.63;1.85;;;17.20;91.00;;;;;;4955441;28;20057;-67
2022/06/22 02:24:05;;;;;;;4.85;1.80;;;17.20;90.70;;;;;;4955279;28;20043;-67
2022/06/22 02:26:42;;;;;;;5.20;1.95;;;17.10;90.70;;;;;;4955270;28;20167;-67
2022/06/22 02:29:10;;;;;;;6.18;2.00;;;17.20;90.80;;;;;;4955496;28;20581;-67
2022/06/22 02:31:36;;;;;;;7.18;2.22;;;17.10;90.90;;;;;;4955497;28;20395;-67
2022/06/22 02:34:02;;;;;;;7.63;2.20;;;17.10;90.90;;;;;;4955546;29;20024;-67
2022/06/22 02:36:31;;;;;;;4.93;1.73;;;17.10;90.90;;;;;;4954883;28;20035;-67
2022/06/22 02:39:02;;;;;;;4.63;2.10;;;17.10;90.80;;;;;;4954835;28;20345;-67
2022/06/22 02:44:29;;;;;;;6.47;1.98;;;17.10;90.90;;;;;;4955316;29;20034;-67
2022/06/22 02:46:57;;;;;;;;;;;17.20;90.90;;;;;;4955306;28;20031;-67
2022/06/22 02:49:30;;;;;;;6.03;2.10;;;17.20;90.90;;;;;;4954632;28;19914;-67
2022/06/22 02:51:58;;;;;;;4.43;2.35;;;17.20;90.90;;;;;;4954836;28;20640;-67
2022/06/22 02:54:29;;;;;;;3.08;1.70;;;17.20;90.90;;;;;;4954253;28;20086;-67
2022/06/22 02:57:03;;;;;;;5.93;2.35;;;17.10;90.90;;;;;;4954755;28;20031;-67
2022/06/22 02:59:29;;;;;;;4.93;1.85;;;17.10;91.00;;;;;;4952940;29;20031;-67
2022/06/22 03:01:57;;;;;;;5.60;2.15;;;17.00;91.00;;;;;;4954819;28;20027;-66
2022/06/22 03:04:23;;;;;;;5.18;2.17;;;17.00;91.10;;;;;;4955010;28;20138;-67
2022/06/22 03:06:53;;;;;;;6.22;2.10;;;16.90;91.10;;;;;;4953241;29;20435;-66
2022/06/22 03:09:19;;;;;;;3.80;2.00;;;16.90;91.20;;;;;;4953790;28;20031;-67
2022/06/22 03:11:50;;;;;;;6.13;1.90;;;16.80;91.30;;;;;;4954366;28;20055;-67
2022/06/22 03:17:16;;;;;;;6.65;1.83;;;16.80;91.40;;;;;;4918350;29;20078;-67
2022/06/22 03:20:03;;;;;;;6.47;2.30;;;16.90;91.30;;;;;;4918970;29;20110;-69
2022/06/22 03:22:44;;;;;;;7.40;2.42;;;16.80;91.30;;;;;;4916621;29;20503;-68
2022/06/22 03:25:29;;;;;;;7.13;2.45;;;16.90;91.40;;;;;;4916585;29;20039;-70
2022/06/22 03:28:01;;;;;;;5.93;1.90;;;16.80;91.50;;;;;;4913733;29;20065;-69
2022/06/22 03:30:33;;;;;;;6.93;2.25;;;16.80;91.60;;;;;;4916109;29;20032;-69
2022/06/22 03:33:08;;;;;;;4.10;2.15;;;16.70;91.70;;;;;;4916213;29;20092;-67
2022/06/22 03:35:36;;;;;;;7.00;2.38;;;16.70;91.70;;;;;;4916403;29;20033;-68
2022/06/22 03:38:37;;;;;;;4.45;2.00;;;16.60;91.90;;;;;;4914602;29;20040;-67
2022/06/22 03:41:12;;;;;;;5.93;2.10;;;16.60;92.00;;;;;;4916463;29;20035;-67
2022/06/22 03:44:04;;;;;;;7.15;2.92;;;16.60;92.00;;;;;;4916095;29;20068;-68
2022/06/22 03:46:56;;;;;;;8.30;2.78;;;16.70;91.90;;;;;;4915798;29;20067;-68
2022/06/22 03:49:34;;;;;;;5.55;2.10;;;16.70;92.10;;;;;;4915286;29;20039;-68
2022/06/22 03:52:29;;;;;;;7.72;2.50;;;16.80;91.90;;;;;;4915738;29;20067;-68
2022/06/22 03:55:03;;;;;;;10.02;3.45;;;16.80;91.90;;;;;;4915404;29;20103;-68
2022/06/22 03:57:35;;;;;;;7.53;3.00;;;16.80;91.80;;;;;;4914000;29;20086;-67
2022/06/22 04:00:03;;;;;;;8.82;2.95;;;16.80;91.70;;;;;;4915421;29;20048;-67
2022/06/22 04:02:31;;;;;;;5.85;2.65;;;16.90;91.70;;;;;;4915684;29;20068;-67
2022/06/22 04:04:58;;;;;;;6.72;3.13;;;16.90;91.60;;;;;;4915481;29;20036;-68
2022/06/22 04:07:28;;;;;;;6.70;2.80;;;16.90;91.60;;;;;;4915333;29;20036;-68
2022/06/22 04:09:55;;;;;;;5.70;3.03;;;17.00;91.60;;;;;;4913368;29;20027;-68
2022/06/22 04:12:40;;;;;;;7.30;2.70;;;17.00;91.50;;;;;;4914036;29;20453;-68
2022/06/22 04:15:32;;;;;;;6.40;2.63;;;17.00;91.50;;;;;;4915403;29;20039;-69
2022/06/22 04:18:18;;;;;;;7.20;2.67;;;17.00;91.60;;;;;;4915030;29;20035;-67
2022/06/22 04:20:57;;;;;;;6.32;3.10;;;17.00;91.60;;;;;;4915403;29;20111;-68
2022/06/22 04:23:22;;;;;;;7.00;3.35;;;17.00;91.70;;;;;;4915056;29;20044;-67
2022/06/22 04:25:49;;;;;;;9.45;2.50;;;17.10;91.70;;;;;;4915379;29;20044;-68
2022/06/22 04:28:17;;;;;;;8.35;3.20;;;17.10;91.70;;;;;;4915030;29;20039;-68
2022/06/22 04:30:47;;;;;;;6.25;3.10;;;17.10;91.70;;;;;;4915140;29;20499;-69
2022/06/22 04:33:35;;;;;;;4.90;2.42;;;17.10;91.80;;;;;;4928354;29;20024;-67
2022/06/22 04:36:05;;;;;;;7.95;3.40;;;17.10;91.80;;;;;;4934075;29;20130;-67
2022/06/22 04:39:08;;;;;;;5.10;2.50;;;17.20;91.80;;;;;;4933623;29;20122;-68
2022/06/22 04:41:39;;;;;;;6.00;2.58;;;17.20;91.80;;;;;;4913321;29;20374;-67
2022/06/22 04:44:24;;;;;;;10.40;3.00;;;17.30;91.70;;;;;;4933659;29;20032;-70
2022/06/22 04:46:53;;;;;;;7.28;3.17;;;17.30;91.90;;;;;;4933534;29;20102;-69
2022/06/22 04:49:25;;;;;;;7.13;3.20;;;17.30;92.00;;;;;;4933282;29;20115;-67
2022/06/22 04:51:57;;;;;;;8.68;2.90;;;17.40;91.70;;;;;;4933528;29;20087;-67
2022/06/22 04:54:37;;;;;;;7.40;3.20;;;17.40;91.70;;;;;;4933485;29;20023;-67
2022/06/22 04:57:13;;;;;;;4.97;2.30;;;17.40;91.70;;;;;;4933921;29;20354;-68
2022/06/22 04:59:40;;;;;;;6.90;3.05;;;17.40;91.70;;;;;;4932837;29;20406;-68
2022/06/22 05:02:10;;;;;;;6.85;2.88;;;17.40;91.90;;;;;;4933259;29;20074;-68
2022/06/22 05:04:41;;;;;;;8.98;3.38;;;17.40;91.90;;;;;;4933431;29;20055;-67
2022/06/22 05:07:07;;;;;;;7.47;3.10;;;17.40;91.70;;;;;;4933229;29;20031;-68
2022/06/22 05:09:42;;;;;;;7.63;3.10;;;17.40;91.70;;;;;;4932707;29;20051;-67
2022/06/22 05:12:13;;;;;;;6.88;3.17;;;17.40;91.70;;;;;;4933397;29;20102;-67
2022/06/22 05:14:41;;;;;;;8.48;3.08;;;17.50;91.60;;;;;;4933098;29;20032;-67
2022/06/22 05:17:24;;;;;;;7.13;3.10;;;17.50;91.70;;;;;;4933236;29;20047;-68
2022/06/22 05:19:56;;;;;;;5.63;2.85;;;17.50;91.70;;;;;;4931946;29;20039;-67
2022/06/22 05:22:22;;;;;;;10.13;4.57;;;17.60;91.60;;;;;;4933345;29;20090;-67
2022/06/22 05:24:55;;;;;;;7.47;3.53;;;17.60;91.50;;;;;;4932976;29;20551;-68
2022/06/22 05:27:26;;;;;;;6.13;3.50;;;17.60;91.60;;;;;;4932067;29;20453;-68
2022/06/22 05:30:01;;;;;;;10.52;3.25;;;17.60;91.60;;;;;;4933021;29;20063;-68
2022/06/22 05:32:35;;;;;;;8.13;3.15;;;17.60;91.40;;;;;;4932030;29;20064;-68
2022/06/22 05:35:11;;;;;;;8.80;3.45;;;17.70;91.30;;;;;;4933367;29;20078;-68
2022/06/22 05:37:43;;;;;;;11.23;4.88;;;17.70;91.20;;;;;;4931454;29;20058;-68
2022/06/22 05:40:10;;;;;;;7.13;3.17;;;17.80;91.40;;;;;;4933416;29;20449;-68
2022/06/22 05:42:37;;;;;;;8.95;3.97;;;17.80;91.30;;;;;;4933146;29;20063;-68
2022/06/22 05:45:12;;;;;;;8.88;3.50;;;17.90;91.00;;;;;;4933542;29;20396;-68
2022/06/22 05:47:38;;;;;;;12.55;3.30;;;17.90;90.90;;;;;;4932800;29;20047;-68
2022/06/22 05:50:13;;;;;;;7.85;3.65;;;17.90;90.90;;;;;;4933241;29;20032;-68
2022/06/22 05:52:55;;;;;;;9.85;4.00;;;18.00;90.90;;;;;;4932061;29;20042;-68
2022/06/22 05:55:48;;;;;;;6.70;3.40;;;18.00;90.70;;;;;;4932802;29;20024;-68
2022/06/22 05:58:28;;;;;;;7.43;3.33;;;18.00;90.70;;;;;;4925415;29;20043;-70
2022/06/22 06:00:58;;;;;;;9.52;4.10;;;18.10;91.10;;;;;;4928701;29;20140;-69
2022/06/22 06:03:41;;;;;;;6.70;3.20;;;18.10;91.20;;;;;;4932188;29;20167;-69
2022/06/22 06:06:12;;;;;;;11.40;4.22;;;18.10;91.00;;;;;;4932968;29;20538;-70
2022/06/22 06:08:49;;;;;;;10.27;3.58;;;18.30;91.60;;;;;;4932249;29;20087;-68
2022/06/22 06:11:25;;;;;;;7.15;3.20;;;18.30;90.10;;;;;;4932886;29;20031;-70
2022/06/22 06:14:05;;;;;;;5.60;3.17;;;18.30;90.30;;;;;;4932556;29;20148;-69
2022/06/22 06:16:52;;;;;;;7.35;3.45;;;18.30;90.40;;;;;;4932387;29;20051;-69
2022/06/22 06:19:22;;;;;;;8.90;3.63;;;18.30;90.90;;;;;;4932315;29;20038;-68
2022/06/22 06:21:54;;;;;;;10.63;3.42;;;18.30;91.00;;;;;;4932412;29;20034;-69
2022/06/22 06:27:34;;;;;;;9.38;3.92;;;18.40;90.80;;;;;;4932067;29;20032;-69
2022/06/22 06:30:21;;;;;;;5.70;3.00;;;18.40;90.80;;;;;;4932101;29;20032;-67
2022/06/22 06:32:53;;;;;;;10.27;2.95;;;18.40;90.50;;;;;;4932094;29;20023;-68
2022/06/22 06:35:32;;;;;;;7.38;3.22;;;18.50;90.20;;;;;;4932089;29;20031;-68
2022/06/22 06:38:01;;;;;;;;;;;18.50;90.30;;;;;;4930097;29;20105;-69
2022/06/22 06:40:56;;;;;;;9.23;3.63;;;18.50;90.40;;;;;;4930778;29;20196;-69
2022/06/22 06:44:04;;;;;;;9.30;3.40;;;18.60;90.50;;;;;;4931755;29;20119;-68
2022/06/22 06:46:53;;;;;;;6.40;2.95;;;18.60;90.30;;;;;;4931335;29;20086;-67
2022/06/22 06:49:22;;;;;;;6.68;3.35;;;18.60;90.30;;;;;;4931828;29;20264;-68
2022/06/22 06:51:59;;;;;;;7.85;3.45;;;18.70;89.60;;;;;;4931611;29;20063;-68
2022/06/22 06:54:39;;;;;;;5.35;2.70;;;18.70;90.10;;;;;;4931845;29;20124;-67
2022/06/22 06:57:17;;;;;;;7.50;2.63;;;18.70;90.00;;;;;;4930617;29;20048;-66
2022/06/22 06:59:48;;;;;;;8.73;3.73;;;18.80;90.10;;;;;;4931889;29;20032;-66
2022/06/22 07:02:32;;;;;;;7.20;2.67;;;18.80;90.10;;;;;;4932362;29;20472;-68
2022/06/22 07:05:00;;;;;;;10.25;2.90;;;18.90;90.40;;;;;;4935714;29;20131;-65
2022/06/22 07:07:54;;;;;;;8.98;3.53;;;19.00;90.60;;;;;;4935540;29;20032;-69
2022/06/22 07:10:33;;;;;;;9.07;4.05;;;19.00;90.50;;;;;;4934149;29;20032;-67
2022/06/22 07:13:00;;;;;;;;;;;19.10;90.10;;;;;;4935940;29;20027;-68
2022/06/22 07:15:39;;;;;;;9.63;3.20;;;19.20;89.80;;;;;;4935409;29;20320;-67
2022/06/22 07:18:34;;;;;;;7.20;3.40;;;19.20;89.50;;;;;;4935197;29;20042;-67
2022/06/22 07:21:12;;;;;;;7.22;2.92;;;19.20;89.10;;;;;;4921063;29;20169;-68
2022/06/22 07:23:47;;;;;;;10.15;3.33;;;19.20;89.30;;;;;;4934597;29;20035;-67
2022/06/22 07:26:52;;;;;;;6.15;2.58;;;19.30;89.60;;;;;;4933511;29;20183;-67
2022/06/22 07:29:22;;;;;;;8.82;3.30;;;19.30;89.70;;;;;;4933139;29;20071;-67
2022/06/22 07:32:26;;;;;;;5.32;2.30;;;19.30;89.70;;;;;;4935311;29;20540;-68
2022/06/22 07:34:58;;;;;;;10.88;3.72;;;19.40;90.30;;;;;;4935251;29;20028;-67
2022/06/22 07:37:32;;;;;;;5.57;2.70;;;19.50;89.10;;;;;;4935628;29;20460;-67
2022/06/22 07:40:17;;;;;;;6.28;2.53;;;19.50;88.80;;;;;;4932954;29;20023;-69
2022/06/22 07:42:48;;;;;;;13.50;3.33;;;19.60;89.10;;;;;;4928286;29;20028;-67
2022/06/22 07:45:16;;;;;;;7.28;3.00;;;19.50;88.80;;;;;;4913905;29;20458;-67
2022/06/22 07:48:03;;;;;;;6.20;2.92;;;19.60;89.00;;;;;;4912597;29;20114;-67
2022/06/22 07:50:36;;;;;;;6.78;2.80;;;19.60;89.10;;;;;;4914731;29;20063;-67
2022/06/22 07:53:14;;;;;;;7.68;2.92;;;19.70;88.00;;;;;;4913445;29;20119;-67
2022/06/22 07:55:59;;;;;;;8.45;3.30;;;19.70;88.50;;;;;;4914839;29;20034;-67
2022/06/22 07:58:48;;;;;;;5.55;2.70;;;19.70;87.80;;;;;;4915215;29;20119;-68
2022/06/22 08:01:31;;;;;;;6.38;2.97;;;19.80;88.30;;;;;;4914505;29;20062;-67
2022/06/22 08:04:23;;;;;;;6.28;2.28;;;19.80;88.30;;;;;;4913850;29;20036;-67
2022/06/22 08:07:18;;;;;;;6.47;2.30;;;19.90;88.20;;;;;;4907178;29;20131;-67
2022/06/22 08:10:08;;;;;;;6.97;2.33;;;19.90;88.40;;;;;;4912342;29;20036;-67
2022/06/22 08:12:49;;;;;;;7.00;2.50;;;20.00;88.30;;;;;;4914996;29;20490;-67
2022/06/22 08:15:18;;;;;;;4.30;1.70;;;20.00;87.10;;;;;;4915167;29;20398;-67
2022/06/22 08:17:56;;;;;;;6.80;2.50;;;20.10;86.50;;;;;;4914978;29;20083;-67
2022/06/22 08:20:37;;;;;;;;;;;20.10;85.70;;;;;;4930243;29;20115;-67
2022/06/22 08:23:06;;;;;;;7.03;2.85;;;20.10;85.80;;;;;;4914703;29;20389;-68
2022/06/22 08:25:33;;;;;;;5.93;2.40;;;20.20;85.90;;;;;;4915375;29;20040;-67
2022/06/22 08:28:02;;;;;;;6.18;2.03;;;20.20;86.80;;;;;;4914740;29;20408;-67
2022/06/22 08:30:29;;;;;;;3.78;2.00;;;20.20;86.20;;;;;;4914690;29;20068;-67
2022/06/22 08:33:25;;;;;;;6.00;1.85;;;20.20;85.60;;;;;;4914845;29;20036;-67
2022/06/22 08:35:56;;;;;;;4.47;2.00;;;20.30;83.30;;;;;;4900676;29;20429;-67
2022/06/22 08:38:47;;;;;;;6.10;1.80;;;20.40;83.90;;;;;;4913843;29;20039;-67
2022/06/22 08:41:43;;;;;;;7.07;2.42;;;20.40;83.40;;;;;;4914530;29;20122;-67
2022/06/22 08:44:21;;;;;;;6.95;2.42;;;20.40;83.60;;;;;;4912897;29;20059;-67
2022/06/22 08:47:14;;;;;;;5.82;2.30;;;20.40;83.80;;;;;;4914566;29;20039;-67
2022/06/22 08:49:54;;;;;;;4.20;1.90;;;20.40;83.20;;;;;;4914550;29;20038;-67
2022/06/22 08:52:53;;;;;;;5.50;1.95;;;20.40;83.20;;;;;;4913875;29;20099;-67
2022/06/22 08:55:24;;;;;;;5.50;2.05;;;20.50;83.80;;;;;;4913857;29;20063;-67
2022/06/22 08:58:05;;;;;;;4.05;1.80;;;20.40;85.10;;;;;;4913621;29;20123;-67
2022/06/22 09:01:06;;;;;;;6.22;2.20;;;20.40;84.80;;;;;;4913757;29;20091;-67
2022/06/22 09:03:58;;;;;;;3.63;1.70;;;20.50;82.30;;;;;;4908488;29;20047;-67
2022/06/22 09:06:39;;;;;;;6.32;1.77;;;20.70;80.80;;;;;;4913500;29;20028;-67
2022/06/22 09:09:23;;;;;;;4.40;2.10;;;20.70;81.20;;;;;;4912588;29;20055;-67
2022/06/22 09:11:55;;;;;;;6.63;2.22;;;20.70;81.60;;;;;;4913460;29;20125;-67
2022/06/22 09:14:42;;;;;;;5.65;1.85;;;20.70;82.10;;;;;;4912032;29;20036;-67
2022/06/22 09:17:33;;;;;;;5.82;2.30;;;20.70;82.10;;;;;;4913225;29;20036;-67
2022/06/22 09:20:09;;;;;;;4.47;1.95;;;20.70;82.50;;;;;;4907979;29;20044;-67
2022/06/22 09:22:58;;;;;;;4.50;1.85;;;20.80;81.30;;;;;;4911986;29;20043;-67
2022/06/22 09:25:32;;;;;;;;;;;20.80;79.60;;;;;;4914003;29;20028;-67
2022/06/22 09:28:09;;;;;;;4.35;1.88;;;20.90;80.00;;;;;;4913328;29;19954;-67
2022/06/22 09:30:57;;;;;;;6.22;1.75;;;20.90;80.20;;;;;;4913234;29;20079;-67
2022/06/22 09:33:44;;;;;;;4.57;1.80;;;20.90;80.10;;;;;;4912102;29;20024;-67
2022/06/22 09:36:37;;;;;;;6.13;1.63;;;20.90;80.20;;;;;;4912732;29;20110;-67
2022/06/22 09:39:41;;;;;;;8.75;2.40;;;20.90;79.60;;;;;;4912219;29;20407;-67
2022/06/22 09:42:37;;;;;;;6.15;2.20;;;20.90;80.40;;;;;;4913067;29;20051;-67
2022/06/22 09:45:12;;;;;;;6.07;1.95;;;21.00;80.70;;;;;;4912465;29;20076;-67
2022/06/22 09:47:38;;;;;;;4.47;1.60;;;21.10;79.80;;;;;;4919340;29;20101;-67
2022/06/22 09:50:36;;;;;;;5.95;1.90;;;21.00;80.20;;;;;;4913005;29;20067;-67
2022/06/22 09:53:23;;;;;;;5.88;1.75;;;21.10;80.20;;;;;;4905445;29;20517;-67
2022/06/22 09:56:19;;;;;;;4.40;1.70;;;21.10;79.80;;;;;;4912504;29;20028;-67
2022/06/22 09:59:07;;;;;;;5.93;1.77;;;21.10;79.80;;;;;;4913159;29;20036;-67
2022/06/22 10:01:51;;;;;;;8.43;2.20;;;21.10;79.80;;;;;;4912963;29;20043;-66
2022/06/22 10:04:54;;;;;;;6.10;2.55;;;21.10;80.20;;;;;;4910204;29;20452;-68
2022/06/22 10:07:26;;;;;;;6.55;2.65;;;21.10;80.40;;;;;;4913612;29;20358;-68
2022/06/22 10:10:01;;;;;;;6.18;2.70;;;21.20;80.30;;;;;;4913065;29;20032;-67
2022/06/22 10:12:53;;;;;;;5.72;2.55;;;21.20;80.10;;;;;;4913540;29;20107;-68
2022/06/22 10:15:42;;;;;;;6.70;2.03;;;21.30;80.20;;;;;;4913614;29;20088;-68
2022/06/22 10:18:23;;;;;;;6.72;2.22;;;21.40;78.90;;;;;;4913342;29;20144;-68
2022/06/22 10:21:46;;;;;;;3.88;1.48;;;21.60;77.30;;;;;;4913327;29;20055;-68
2022/06/22 10:24:32;;;;;;;5.70;2.15;;;21.60;78.40;;;;;;4898103;29;20548;-68
2022/06/22 10:27:19;;;;;;;6.55;2.20;;;21.60;79.60;;;;;;4913169;29;20051;-68
2022/06/22 10:29:51;;;;;;;4.68;1.55;;;21.60;77.70;;;;;;4895752;29;20097;-68
2022/06/22 10:32:38;;;;;;;7.32;2.28;;;21.60;77.00;;;;;;4894672;29;20067;-68
2022/06/22 10:35:22;;;;;;;5.47;2.23;;;21.60;77.20;;;;;;4894828;29;20124;-67
2022/06/22 10:38:13;;;;;;;5.55;1.75;;;21.60;77.30;;;;;;4912368;29;20804;-69
2022/06/22 10:46:59;;;;;;;5.78;1.90;;;21.50;77.70;;;;;;4916904;29;20039;-68
2022/06/22 10:50:14;;;;;;;3.70;1.70;;;21.60;76.80;;;;;;4916795;29;20100;-68
2022/06/22 10:53:05;;;;;;;5.25;1.60;;;21.60;77.20;;;;;;4915063;29;20069;-67
2022/06/22 10:55:51;;;;;;;4.50;2.15;;;21.70;76.80;;;;;;4915798;29;20064;-68
2022/06/22 10:58:58;;;;;;;4.55;1.83;;;21.70;77.50;;;;;;4916460;29;20071;-68
2022/06/22 11:02:03;;;;;;;5.13;1.92;;;21.70;77.10;;;;;;4917501;29;20570;-68
2022/06/22 11:04:50;;;;;;;6.60;3.28;;;21.70;78.10;;;;;;4915884;29;20038;-67
2022/06/22 11:07:41;;;;;;;4.70;2.05;;;21.60;79.10;;;;;;4907474;29;20028;-70
2022/06/22 11:10:29;;;;;;;5.38;1.75;;;21.60;77.80;;;;;;4915559;29;20043;-68
2022/06/22 11:13:33;;;;;;;3.92;1.52;;;21.80;77.50;;;;;;4916293;29;20100;-68
2022/06/22 11:16:16;;;;;;;4.50;1.77;;;21.90;75.20;;;;;;4915141;29;20514;-68
2022/06/22 11:19:17;;;;;;;5.15;1.83;;;22.10;74.70;;;;;;4916121;29;20214;-69
2022/06/22 11:21:57;;;;;;;3.83;2.13;;;22.10;75.20;;;;;;4916301;29;20100;-68
2022/06/22 11:24:41;;;;;;;4.15;1.80;;;22.20;73.40;;;;;;4915910;29;20048;-68
2022/06/22 11:30:51;;;;;;;5.45;1.83;;;22.20;74.60;;;;;;4897595;29;20052;-68
2022/06/22 11:33:36;;;;;;;5.18;2.20;;;22.20;75.20;;;;;;4897711;29;20431;-69
2022/06/22 11:36:43;;;;;;;3.45;1.70;;;22.30;74.90;;;;;;4897371;29;20060;-69
2022/06/22 11:39:29;;;;;;;4.80;1.50;;;22.30;74.60;;;;;;4896940;29;20044;-68
2022/06/22 11:42:13;;;;;;;4.53;1.60;;;22.30;73.90;;;;;;4897343;29;20513;-69
2022/06/22 11:47:59;;;;;;;4.40;1.77;;;22.40;72.60;;;;;;4896860;29;20402;-68
2022/06/22 11:50:51;;;;;;;4.95;1.67;;;22.50;72.10;;;;;;4895778;29;20064;-68
2022/06/22 11:53:44;;;;;;;5.47;1.65;;;22.60;72.10;;;;;;4896834;29;20039;-69
2022/06/22 11:56:36;;;;;;;3.85;1.40;;;22.70;71.30;;;;;;4896987;29;20266;-69
2022/06/22 11:59:06;;;;;;;4.65;1.52;;;22.70;72.10;;;;;;4894710;29;20045;-68
2022/06/22 12:02:10;;;;;;;4.47;1.38;;;22.70;72.70;;;;;;4897191;29;20036;-68
2022/06/22 12:05:18;;;;;;;2.75;1.50;;;22.70;70.40;;;;;;4902850;29;20112;-68
2022/06/22 12:08:22;;;;;;;5.68;1.67;;;22.80;70.70;;;;;;4896180;29;20061;-69
2022/06/22 12:10:53;;;;;;;3.83;1.65;;;22.80;70.50;;;;;;4896560;29;20036;-69
2022/06/22 12:13:40;;;;;;;4.38;1.90;;;22.90;70.30;;;;;;4896405;29;20029;-69
2022/06/22 12:16:24;;;;;;;5.45;1.75;;;22.90;69.80;;;;;;4897286;29;20178;-68
2022/06/22 12:19:07;;;;;;;6.22;1.23;;;23.20;68.20;;;;;;4896778;29;20050;-68
2022/06/22 12:21:59;;;;;;;3.95;1.30;;;23.50;67.10;;;;;;4896421;29;20458;-69
2022/06/22 12:24:40;;;;;;;5.10;1.30;;;23.70;68.10;;;;;;4896214;29;20063;-69
2022/06/22 12:27:17;;;;;;;3.88;1.48;;;23.90;67.80;;;;;;4896112;29;20505;-69
2022/06/22 12:30:04;;;;;;;3.42;1.50;;;23.90;67.20;;;;;;4896222;29;20031;-69
2022/06/22 12:32:37;;;;;;;5.35;1.80;;;24.00;68.80;;;;;;4910737;29;20036;-69
2022/06/22 12:35:21;;;;;;;4.75;2.03;;;24.00;67.00;;;;;;4910653;29;20531;-69
2022/06/22 12:38:03;;;;;;;5.05;1.90;;;24.20;65.40;;;;;;4895381;29;20560;-68
2022/06/22 12:40:49;;;;;;;4.63;1.70;;;24.30;64.50;;;;;;4896054;29;20043;-69
2022/06/22 12:43:27;;;;;;;5.55;1.67;;;24.50;64.70;;;;;;4896038;29;20035;-68
2022/06/22 12:46:01;;;;;;;5.38;1.55;;;24.60;64.80;;;;;;4896189;29;20056;-69
2022/06/22 12:48:51;;;;;;;5.72;1.70;;;24.80;65.40;;;;;;4895889;29;20033;-69
2022/06/22 12:51:23;;;;;;;3.35;1.58;;;24.80;65.40;;;;;;4895962;29;20036;-69
2022/06/22 12:53:58;;;;;;;5.38;2.03;;;24.80;64.00;;;;;;4895524;29;20103;-69
2022/06/22 12:56:57;;;;;;;3.38;1.70;;;24.90;64.50;;;;;;4895620;29;20040;-69
2022/06/22 12:59:37;;;;;;;6.38;1.70;;;25.00;63.70;;;;;;4895526;29;20033;-69
2022/06/22 13:02:08;;;;;;;7.97;1.85;;;25.00;62.60;;;;;;4895657;29;20122;-69
2022/06/22 13:04:36;;;;;;;4.93;1.83;;;25.00;62.80;;;;;;4895575;29;20039;-69
2022/06/22 13:07:10;;;;;;;6.47;1.80;;;25.10;63.50;;;;;;4895439;29;20562;-71
2022/06/22 13:09:36;;;;;;;4.50;1.63;;;25.00;63.20;;;;;;4895731;29;20056;-67
2022/06/22 13:12:14;;;;;;;3.75;1.70;;;25.00;63.10;;;;;;4895579;29;20107;-68
2022/06/22 13:14:57;;;;;;;6.00;2.33;;;25.00;64.20;;;;;;4895367;29;20320;-69
2022/06/22 13:17:27;;;;;;;4.88;2.60;;;24.90;63.90;;;;;;4909867;29;20103;-68
2022/06/22 13:20:20;;;;;;;5.78;1.92;;;24.80;64.10;;;;;;4895753;29;20033;-68
2022/06/22 13:22:56;;;;;;;4.60;2.00;;;24.70;64.80;;;;;;4923745;29;20087;-68
2022/06/22 13:25:43;;;;;;;7.03;2.63;;;24.50;65.00;;;;;;4913574;29;20039;-69
2022/06/22 13:28:20;;;;;;;4.30;2.28;;;24.40;63.90;;;;;;4912588;29;20039;-68
2022/06/22 13:31:03;;;;;;;3.58;1.35;;;24.30;64.10;;;;;;4912631;29;20505;-68
2022/06/22 13:33:46;;;;;;;2.83;1.45;;;24.30;63.70;;;;;;4913142;29;20048;-69
2022/06/22 13:36:30;;;;;;;3.13;1.80;;;24.20;65.00;;;;;;4911850;29;20028;-68
2022/06/22 13:39:13;;;;;;;2.55;1.40;;;24.10;64.80;;;;;;4909222;29;20389;-68
2022/06/22 13:41:52;;;;;;;4.05;1.83;;;24.10;65.30;;;;;;4910854;29;20036;-68
2022/06/22 13:44:48;;;;;;;4.63;1.90;;;24.10;64.30;;;;;;4911462;29;20578;-68
2022/06/22 13:47:35;;;;;;;7.15;2.00;;;24.20;64.50;;;;;;4911428;29;20517;-68
2022/06/22 13:51:08;;;;;;;4.68;1.50;;;24.20;64.00;;;;;;4911654;29;20564;-68
2022/06/22 13:54:27;;;;;;;5.40;1.40;;;24.40;63.40;;;;;;4912682;29;20512;-68
2022/06/22 13:57:02;;;;;;;6.93;1.60;;;24.70;63.20;;;;;;4905299;29;20036;-69
2022/06/22 14:00:06;;;;;;;5.72;1.63;;;24.90;63.60;;;;;;4913204;29;20071;-68
2022/06/22 14:02:58;;;;;;;6.47;1.40;;;25.00;63.30;;;;;;4911807;29;20420;-67
2022/06/22 14:05:46;;;;;;;3.00;1.60;;;25.20;62.70;;;;;;4914154;29;20406;-68
2022/06/22 14:08:23;;;;;;;5.47;1.45;;;25.50;62.80;;;;;;4913035;29;20043;-70
2022/06/22 14:11:12;;;;;;;4.25;1.52;;;25.50;61.80;;;;;;4895575;29;20036;-70
2022/06/22 14:13:59;;;;;;;4.40;1.80;;;25.70;61.40;;;;;;4925418;29;20035;-68
2022/06/22 14:16:46;;;;;;;9.02;2.00;;;26.00;62.40;;;;;;4912462;29;20040;-70
2022/06/22 14:19:35;;;;;;;4.95;1.38;;;26.60;61.70;;;;;;4913214;29;20043;-69